createdAt,value
2019-04-20T00:00:19.003Z,44.63
2019-04-20T00:01:22.738Z,44.83
2019-04-20T00:02:20.341Z,44.93
2019-04-20T00:03:17.946Z,45.14
2019-04-20T00:04:24.428Z,45.34
2019-04-20T00:05:17.512Z,45.54
2019-04-20T00:06:17.348Z,45.85
2019-04-20T00:07:21.903Z,45.75
2019-04-20T00:08:23.417Z,45.85
2019-04-20T00:09:24.090Z,45.73
2019-04-20T00:10:21.272Z,45.63
2019-04-20T00:11:25.101Z,44.83
2019-04-20T00:12:25.245Z,45.24
2019-04-20T00:13:29.064Z,44.83
2019-04-20T00:14:24.044Z,45.34
2019-04-20T00:15:17.617Z,45.04
2019-04-20T00:16:16.831Z,45.26
2019-04-20T00:17:17.848Z,45.57
2019-04-20T00:18:17.006Z,45.57
2019-04-20T00:19:22.526Z,45.47
2019-04-20T00:20:23.611Z,45.57
2019-04-20T00:21:18.069Z,45.87
2019-04-20T00:22:17.231Z,45.67
2019-04-20T00:23:22.890Z,45.87
2019-04-20T00:24:23.350Z,46.18
2019-04-20T00:25:20.462Z,45.77
2019-04-20T00:26:26.530Z,46.00
2019-04-20T00:27:38.433Z,46.10
2019-04-20T00:28:35.209Z,46.20
2019-04-20T00:29:36.715Z,46.41
2019-04-20T00:30:43.965Z,46.51
2019-04-20T00:31:30.658Z,46.51
2019-04-20T00:32:29.623Z,46.61
2019-04-20T00:33:31.145Z,46.51
2019-04-20T00:34:24.604Z,46.51
2019-04-20T00:35:17.196Z,46.61
2019-04-20T00:36:16.234Z,46.41
2019-04-20T00:37:17.065Z,46.71
2019-04-20T00:38:16.189Z,47.12
2019-04-20T00:39:17.187Z,46.81
2019-04-20T00:40:17.102Z,46.92
2019-04-20T00:41:18.629Z,46.81
2019-04-20T00:42:17.939Z,46.94
2019-04-20T00:43:21.225Z,47.24
2019-04-20T00:44:23.879Z,47.45
2019-04-20T00:45:23.482Z,47.65
2019-04-20T00:46:25.849Z,47.34
2019-04-20T00:47:30.417Z,47.45
2019-04-20T00:48:31.817Z,47.45
2019-04-20T00:49:30.493Z,47.45
2019-04-20T00:50:38.799Z,47.55
2019-04-20T00:51:40.491Z,47.65
2019-04-20T00:52:31.097Z,47.65
2019-04-20T00:53:25.786Z,47.86
2019-04-20T00:54:18.075Z,48.16
2019-04-20T00:55:17.009Z,47.96
2019-04-20T00:56:16.202Z,48.16
2019-04-20T00:57:24.470Z,48.36
2019-04-20T00:58:23.359Z,48.67
2019-04-20T00:59:30.184Z,48.57
2019-04-20T01:00:31.338Z,48.36
2019-04-20T01:01:37.484Z,47.86
2019-04-20T01:02:30.212Z,47.75
2019-04-20T01:03:35.145Z,48.26
2019-04-20T01:04:37.513Z,48.26
2019-04-20T01:05:35.325Z,48.59
2019-04-20T01:06:31.869Z,48.39
2019-04-20T01:07:26.309Z,48.28
2019-04-20T01:08:17.131Z,48.59
2019-04-20T01:09:16.094Z,48.59
2019-04-20T01:10:17.064Z,48.69
2019-04-20T01:11:23.147Z,48.80
2019-04-20T01:12:22.512Z,48.69
2019-04-20T01:13:19.886Z,48.80
2019-04-20T01:14:21.085Z,48.69
2019-04-20T01:15:24.555Z,48.92
2019-04-20T01:16:25.702Z,49.02
2019-04-20T01:17:16.720Z,49.13
2019-04-20T01:18:15.707Z,49.02
2019-04-20T01:19:18.838Z,49.13
2019-04-20T01:20:15.740Z,49.54
2019-04-20T01:21:20.206Z,49.33
2019-04-20T01:22:21.845Z,49.33
2019-04-20T01:23:20.753Z,49.33
2019-04-20T01:24:23.923Z,49.43
2019-04-20T01:25:22.133Z,49.63
2019-04-20T01:26:19.679Z,49.63
2019-04-20T01:27:28.323Z,49.54
2019-04-20T01:28:35.836Z,49.74
2019-04-20T01:29:26.152Z,49.74
2019-04-20T01:30:25.156Z,49.84
2019-04-20T01:31:28.441Z,49.84
2019-04-20T01:32:28.082Z,49.95
2019-04-20T01:33:34.395Z,49.74
2019-04-20T01:34:32.536Z,49.95
2019-04-20T01:35:38.244Z,50.15
2019-04-20T01:36:36.965Z,49.95
2019-04-20T01:37:29.775Z,49.95
2019-04-20T01:38:30.502Z,50.07
2019-04-20T01:39:26.274Z,50.27
2019-04-20T01:40:16.997Z,50.58
2019-04-20T01:41:16.099Z,50.35
2019-04-20T01:42:15.460Z,50.68
2019-04-20T01:43:16.337Z,51.19
2019-04-20T01:44:18.041Z,51.27
2019-04-20T01:45:24.737Z,51.27
2019-04-20T01:46:21.535Z,51.17
2019-04-20T01:47:17.084Z,51.07
2019-04-20T01:48:22.049Z,51.07
2019-04-20T01:49:21.007Z,50.96
2019-04-20T01:50:22.768Z,50.66
2019-04-20T01:51:21.202Z,50.25
2019-04-20T01:52:24.312Z,50.15
2019-04-20T01:53:29.300Z,50.48
2019-04-20T01:54:33.939Z,50.89
2019-04-20T01:55:32.926Z,51.09
2019-04-20T01:56:33.915Z,51.50
2019-04-20T01:57:22.692Z,51.70
2019-04-20T01:58:37.679Z,51.60
2019-04-20T01:59:28.905Z,51.60
2019-04-20T02:00:23.294Z,51.60
2019-04-20T02:01:21.043Z,51.70
2019-04-20T02:02:19.617Z,51.70
2019-04-20T02:03:17.063Z,51.60
2019-04-20T02:04:20.526Z,51.70
2019-04-20T02:05:23.998Z,51.60
2019-04-20T02:06:19.662Z,50.78
2019-04-20T02:07:18.323Z,50.99
2019-04-20T02:08:19.644Z,51.21
2019-04-20T02:09:21.045Z,51.42
2019-04-20T02:10:18.500Z,51.32
2019-04-20T02:11:21.875Z,51.21
2019-04-20T02:12:22.358Z,51.21
2019-04-20T02:13:17.359Z,51.54
2019-04-20T02:14:24.241Z,51.86
2019-04-20T02:15:24.496Z,51.65
2019-04-20T02:16:27.607Z,51.75
2019-04-20T02:17:26.361Z,51.86
2019-04-20T02:18:29.986Z,51.95
2019-04-20T02:19:33.413Z,51.65
2019-04-20T02:20:38.984Z,51.75
2019-04-20T02:21:34.145Z,52.06
2019-04-20T02:22:38.353Z,51.95
2019-04-20T02:23:28.366Z,51.86
2019-04-20T02:24:16.514Z,51.95
2019-04-20T02:25:16.225Z,51.93
2019-04-20T02:26:16.020Z,51.45
2019-04-20T02:27:14.962Z,51.75
2019-04-20T02:28:34.680Z,51.86
2019-04-20T02:29:39.961Z,51.75
2019-04-20T02:30:48.156Z,51.75
2019-04-20T02:31:55.165Z,51.95
2019-04-20T02:32:47.925Z,51.98
2019-04-20T02:33:47.267Z,52.29
2019-04-20T02:34:51.250Z,52.39
2019-04-20T02:35:54.420Z,52.39
2019-04-20T02:38:01.638Z,52.59
2019-04-20T02:39:13.409Z,52.70
2019-04-20T02:40:00.867Z,52.80
2019-04-20T02:40:54.592Z,52.59
2019-04-20T02:41:51.158Z,52.59
2019-04-20T02:42:59.862Z,52.59
2019-04-20T02:44:03.761Z,52.70
2019-04-20T02:44:48.119Z,52.90
2019-04-20T02:46:51.063Z,52.90
2019-04-20T02:47:47.371Z,53.00
2019-04-20T02:48:50.972Z,53.00
2019-04-20T02:50:59.514Z,53.11
2019-04-20T02:51:59.057Z,53.00
2019-04-20T02:54:12.894Z,53.21
2019-04-20T02:54:50.388Z,53.31
2019-04-20T02:55:47.737Z,53.52
2019-04-20T02:56:57.526Z,53.72
2019-04-20T02:57:58.447Z,53.62
2019-04-20T02:58:58.043Z,53.72
2019-04-20T03:00:38.576Z,53.21
2019-04-20T03:01:36.945Z,53.82
2019-04-20T03:02:33.388Z,53.21
2019-04-20T03:03:26.932Z,53.11
2019-04-20T03:04:25.767Z,53.23
2019-04-20T03:05:27.846Z,53.54
2019-04-20T03:06:26.467Z,53.75
2019-04-20T03:07:31.580Z,53.75
2019-04-20T03:08:31.715Z,53.75
2019-04-20T03:09:36.191Z,53.64
2019-04-20T03:10:43.331Z,53.87
2019-04-20T03:11:46.566Z,54.28
2019-04-20T03:12:38.776Z,54.51
2019-04-20T03:13:39.676Z,54.51
2019-04-20T03:14:30.303Z,54.49
2019-04-20T03:15:38.279Z,54.49
2019-04-20T03:16:32.138Z,54.59
2019-04-20T03:17:38.448Z,54.49
2019-04-20T03:18:37.326Z,54.59
2019-04-20T03:19:29.977Z,54.79
2019-04-20T03:20:36.265Z,54.59
2019-04-20T03:21:39.084Z,54.69
2019-04-20T03:23:02.401Z,54.79
2019-04-20T03:23:44.496Z,54.90
2019-04-20T03:24:37.615Z,54.69
2019-04-20T03:25:36.065Z,54.79
2019-04-20T03:26:33.021Z,55.00
2019-04-20T03:27:30.852Z,55.30
2019-04-20T03:28:37.313Z,55.41
2019-04-20T03:29:36.983Z,55.30
2019-04-20T03:31:16.519Z,55.28
2019-04-20T03:31:54.318Z,55.49
2019-04-20T03:35:43.125Z,54.79
2019-04-20T03:36:43.014Z,55.10
2019-04-20T03:37:36.650Z,55.10
2019-04-20T03:38:38.548Z,55.21
2019-04-20T03:39:33.408Z,55.43
2019-04-20T03:40:32.448Z,55.54
2019-04-20T03:41:24.492Z,55.64
2019-04-20T03:42:15.979Z,55.74
2019-04-20T03:43:14.130Z,55.85
2019-04-20T03:44:19.128Z,55.85
2019-04-20T03:45:19.330Z,55.85
2019-04-20T03:46:19.281Z,55.92
2019-04-20T03:47:26.683Z,55.72
2019-04-20T03:48:33.609Z,55.92
2019-04-20T03:49:42.045Z,56.02
2019-04-20T03:50:39.383Z,56.13
2019-04-20T03:51:45.561Z,56.15
2019-04-20T03:52:32.988Z,56.26
2019-04-20T03:53:35.410Z,56.35
2019-04-20T03:54:28.610Z,56.46
2019-04-20T03:55:31.180Z,56.46
2019-04-20T03:56:34.861Z,56.67
2019-04-20T03:57:34.404Z,56.87
2019-04-20T03:58:33.469Z,57.20
2019-04-20T03:59:29.864Z,57.31
2019-04-20T04:00:31.495Z,57.51
2019-04-20T04:01:47.772Z,57.61
2019-04-20T04:02:47.945Z,57.61
2019-04-20T04:03:41.049Z,57.51
2019-04-20T04:04:37.205Z,57.92
2019-04-20T04:05:31.287Z,58.03
2019-04-20T04:06:25.498Z,58.12
2019-04-20T04:07:25.175Z,58.23
2019-04-20T04:08:26.676Z,58.33
2019-04-20T04:09:25.906Z,58.23
2019-04-20T04:10:28.246Z,58.12
2019-04-20T04:11:31.185Z,58.12
2019-04-20T04:12:24.802Z,57.89
2019-04-20T04:13:15.032Z,57.89
2019-04-20T04:14:13.787Z,57.79
2019-04-20T04:15:14.705Z,57.79
2019-04-20T04:16:16.791Z,57.89
2019-04-20T04:17:21.251Z,57.59
2019-04-20T04:18:21.885Z,57.89
2019-04-20T04:19:21.656Z,57.92
2019-04-20T04:20:17.753Z,58.03
2019-04-20T04:21:21.811Z,58.23
2019-04-20T04:22:26.203Z,58.33
2019-04-20T04:23:33.706Z,58.23
2019-04-20T04:24:26.070Z,58.23
2019-04-20T04:25:25.049Z,58.23
2019-04-20T04:26:32.308Z,58.33
2019-04-20T04:27:32.358Z,58.64
2019-04-20T04:28:34.535Z,58.64
2019-04-20T04:29:39.697Z,58.64
2019-04-20T04:30:30.739Z,58.54
2019-04-20T04:31:33.817Z,58.54
2019-04-20T04:33:00.420Z,58.33
2019-04-20T04:34:33.771Z,58.54
2019-04-20T04:35:26.715Z,58.44
2019-04-20T04:36:30.694Z,58.20
2019-04-20T04:37:34.976Z,58.00
2019-04-20T04:38:37.431Z,58.23
2019-04-20T04:39:35.360Z,58.23
2019-04-20T04:40:42.822Z,58.44
2019-04-20T04:41:31.062Z,58.77
2019-04-20T04:42:35.157Z,59.08
2019-04-20T04:43:36.091Z,59.18
2019-04-20T04:44:26.571Z,59.08
2019-04-20T04:45:17.579Z,58.95
2019-04-20T04:46:14.479Z,58.84
2019-04-20T04:47:14.920Z,58.33
2019-04-20T04:48:21.323Z,58.54
2019-04-20T04:49:24.214Z,58.30
2019-04-20T04:50:19.270Z,58.30
2019-04-20T04:51:22.298Z,58.20
2019-04-20T04:52:18.224Z,57.87
2019-04-20T04:53:28.887Z,57.66
2019-04-20T04:54:25.861Z,57.35
2019-04-20T04:55:27.368Z,57.25
2019-04-20T04:56:18.079Z,57.33
2019-04-20T04:57:15.645Z,56.92
2019-04-20T04:58:13.302Z,56.00
2019-04-20T04:59:13.315Z,56.41
2019-04-20T05:00:17.911Z,56.41
2019-04-20T05:01:20.717Z,56.61
2019-04-20T05:02:14.264Z,56.61
2019-04-20T05:03:28.575Z,56.30
2019-04-20T05:04:33.258Z,56.71
2019-04-20T05:05:36.066Z,56.61
2019-04-20T05:06:31.829Z,56.59
2019-04-20T05:07:32.211Z,56.38
2019-04-20T05:08:22.273Z,55.87
2019-04-20T05:09:16.762Z,55.74
2019-04-20T05:10:14.048Z,55.26
2019-04-20T05:11:13.262Z,55.23
2019-04-20T05:12:18.651Z,55.13
2019-04-20T05:13:14.148Z,55.02
2019-04-20T05:14:19.299Z,54.72
2019-04-20T05:15:28.230Z,54.59
2019-04-20T05:16:37.420Z,54.80
2019-04-20T05:17:33.990Z,54.18
2019-04-20T05:18:42.102Z,54.00
2019-04-20T05:19:36.806Z,54.85
2019-04-20T05:20:35.344Z,55.05
2019-04-20T05:21:30.038Z,54.64
2019-04-20T05:22:40.135Z,54.33
2019-04-20T05:23:29.517Z,54.44
2019-04-20T05:24:30.461Z,54.64
2019-04-20T05:25:30.947Z,54.64
2019-04-20T05:26:38.561Z,54.74
2019-04-20T05:27:36.342Z,54.21
2019-04-20T05:28:27.920Z,53.98
2019-04-20T05:29:19.548Z,53.88
2019-04-20T05:30:14.044Z,53.13
2019-04-20T05:31:13.918Z,51.98
2019-04-20T05:32:17.043Z,51.70
2019-04-20T05:33:26.827Z,52.22
2019-04-20T05:34:30.512Z,52.44
2019-04-20T05:35:31.185Z,52.22
2019-04-20T05:36:40.047Z,51.78
2019-04-20T05:37:54.608Z,51.25
2019-04-20T05:38:41.487Z,50.20
2019-04-20T05:39:55.868Z,49.38
2019-04-20T05:40:32.573Z,49.79
2019-04-20T05:41:31.060Z,50.02
2019-04-20T05:42:35.902Z,49.90
2019-04-20T05:43:33.524Z,49.49
2019-04-20T05:44:39.011Z,49.05
2019-04-20T05:45:28.618Z,48.60
2019-04-20T05:46:35.353Z,47.46
2019-04-20T05:47:33.365Z,46.20
2019-04-20T05:48:31.686Z,45.87
2019-04-20T05:49:29.771Z,44.60
2019-04-20T05:50:33.265Z,43.65
2019-04-20T05:51:36.393Z,43.23
2019-04-20T05:53:37.068Z,42.19
2019-04-20T05:54:39.095Z,41.99
2019-04-20T05:55:35.792Z,42.19
2019-04-20T05:56:35.515Z,42.09
2019-04-20T05:57:36.230Z,41.56
2019-04-20T05:58:32.775Z,40.91
2019-04-20T05:59:34.926Z,40.59
2019-04-20T06:00:40.445Z,40.27
2019-04-20T06:01:37.970Z,39.24
2019-04-20T06:02:33.268Z,39.00
2019-04-20T06:03:35.356Z,38.78
2019-04-20T06:04:50.522Z,37.57
2019-04-20T06:05:38.568Z,37.35
2019-04-20T06:06:32.817Z,37.33
2019-04-20T06:07:40.353Z,36.62
2019-04-20T06:08:49.405Z,36.42
2019-04-20T06:09:33.925Z,36.00
2019-04-20T06:10:41.839Z,36.24
2019-04-20T06:11:34.404Z,37.06
2019-04-20T06:12:38.570Z,36.96
2019-04-20T06:13:27.722Z,36.98
2019-04-20T06:14:25.667Z,37.16
2019-04-20T06:15:36.682Z,36.94
2019-04-20T06:16:30.982Z,36.20
2019-04-20T06:17:31.988Z,35.68
2019-04-20T06:18:32.707Z,35.58
2019-04-20T06:19:38.389Z,35.38
2019-04-20T06:20:38.055Z,35.48
2019-04-20T06:21:37.766Z,35.26
2019-04-20T06:22:37.851Z,34.64
2019-04-20T06:23:40.362Z,34.42
2019-04-20T06:24:39.976Z,33.80
2019-04-20T06:26:44.288Z,33.73
2019-04-20T06:27:34.197Z,34.67
2019-04-20T06:28:32.248Z,35.41
2019-04-20T06:29:31.085Z,36.04
2019-04-20T06:30:27.965Z,36.24
2019-04-20T06:31:35.555Z,36.00
2019-04-20T06:32:33.670Z,35.63
2019-04-20T06:33:52.181Z,36.68
2019-04-20T06:34:40.091Z,36.99
2019-04-20T06:35:51.614Z,37.92
2019-04-20T06:36:43.083Z,38.21
2019-04-20T06:37:41.746Z,37.18
2019-04-20T06:38:48.248Z,37.59
2019-04-20T06:39:42.647Z,37.48
2019-04-20T06:41:53.861Z,36.96
2019-04-20T06:42:31.971Z,36.74
2019-04-20T06:43:43.352Z,35.72
2019-04-20T06:45:35.006Z,36.34
2019-04-20T06:46:36.282Z,35.92
2019-04-20T06:47:42.512Z,35.83
2019-04-20T06:48:44.535Z,36.76
2019-04-20T06:49:33.333Z,36.76
2019-04-20T06:50:30.234Z,36.88
2019-04-20T06:51:34.887Z,37.18
2019-04-20T06:52:35.328Z,36.64
2019-04-20T06:53:36.955Z,36.30
2019-04-20T06:54:35.966Z,35.57
2019-04-20T06:55:38.443Z,34.64
2019-04-20T06:56:36.850Z,34.99
2019-04-20T06:57:37.277Z,35.52
2019-04-20T06:59:42.281Z,35.92
2019-04-20T07:00:30.810Z,35.48
2019-04-20T07:01:44.974Z,35.06
2019-04-20T07:02:37.304Z,34.44
2019-04-20T07:03:58.088Z,34.02
2019-04-20T07:04:41.848Z,33.62
2019-04-20T07:05:34.694Z,32.91
2019-04-20T07:07:29.394Z,35.31
2019-04-20T07:08:56.656Z,34.99
2019-04-20T07:10:40.699Z,33.82
2019-04-20T07:11:39.099Z,33.01
2019-04-20T07:12:33.101Z,32.68
2019-04-20T07:13:27.981Z,32.59
2019-04-20T07:14:31.432Z,33.44
2019-04-20T07:15:29.167Z,33.53
2019-04-20T07:16:34.912Z,33.42
2019-04-20T07:17:53.633Z,33.31
2019-04-20T07:18:35.319Z,33.40
2019-04-20T07:19:31.277Z,33.18
2019-04-20T07:20:41.197Z,32.48
2019-04-20T07:21:44.606Z,32.59
2019-04-20T07:22:34.678Z,33.08
2019-04-20T07:23:31.212Z,32.68
2019-04-20T07:24:43.235Z,32.51
2019-04-20T07:25:39.011Z,33.45
2019-04-20T07:26:37.476Z,33.95
2019-04-20T07:27:35.403Z,33.72
2019-04-20T07:28:43.577Z,32.76
2019-04-20T07:29:54.588Z,31.83
2019-04-20T07:30:35.685Z,31.03
2019-04-20T07:31:30.853Z,31.14
2019-04-20T07:32:32.613Z,31.86
2019-04-20T07:33:32.202Z,32.24
2019-04-20T07:34:34.817Z,32.45
2019-04-20T07:35:30.571Z,32.03
2019-04-20T07:36:37.815Z,31.71
2019-04-20T07:38:04.604Z,31.71
2019-04-20T07:39:33.166Z,32.21
2019-04-20T07:40:29.205Z,31.90
2019-04-20T07:41:43.016Z,31.29
2019-04-20T07:42:35.071Z,30.78
2019-04-20T07:43:30.074Z,31.10
2019-04-20T07:44:41.393Z,31.73
2019-04-20T07:46:46.865Z,31.95
2019-04-20T07:47:40.585Z,32.87
2019-04-20T07:48:33.867Z,32.65
2019-04-20T07:49:32.472Z,32.85
2019-04-20T07:50:25.200Z,32.53
2019-04-20T07:51:19.572Z,32.03
2019-04-20T07:52:12.392Z,32.33
2019-04-20T07:53:28.404Z,32.21
2019-04-20T07:54:58.415Z,31.70
2019-04-20T07:55:40.525Z,31.60
2019-04-20T07:56:39.299Z,31.88
2019-04-20T07:57:30.703Z,31.07
2019-04-20T07:58:25.151Z,30.84
2019-04-20T07:59:25.330Z,31.40
2019-04-20T08:00:44.939Z,32.93
2019-04-20T08:01:40.204Z,32.85
2019-04-20T08:02:38.075Z,33.34
2019-04-20T08:04:28.763Z,32.69
2019-04-20T08:05:25.465Z,31.56
2019-04-20T08:06:20.062Z,31.46
2019-04-20T08:07:14.103Z,30.54
2019-04-20T08:08:28.183Z,30.24
2019-04-20T08:09:24.353Z,30.73
2019-04-20T08:10:30.660Z,31.17
2019-04-20T08:11:31.711Z,31.80
2019-04-20T08:12:48.975Z,32.40
2019-04-20T08:13:41.982Z,32.50
2019-04-20T08:14:39.952Z,32.39
2019-04-20T08:15:46.206Z,32.06
2019-04-20T08:16:41.110Z,31.64
2019-04-20T08:17:37.385Z,31.31
2019-04-20T08:19:28.674Z,30.08
2019-04-20T08:20:34.147Z,29.58
2019-04-20T08:21:38.789Z,29.68
2019-04-20T08:22:35.400Z,30.02
2019-04-20T08:23:33.594Z,30.44
2019-04-20T08:24:27.902Z,30.64
2019-04-20T08:25:26.923Z,30.44
2019-04-20T08:26:20.913Z,30.97
2019-04-20T08:27:13.149Z,31.15
2019-04-20T08:28:17.827Z,31.15
2019-04-20T08:29:21.730Z,30.95
2019-04-20T08:30:29.386Z,30.52
2019-04-20T08:31:26.901Z,30.81
2019-04-20T08:32:28.122Z,30.68
2019-04-20T08:33:30.908Z,29.64
2019-04-20T08:34:35.362Z,28.53
2019-04-20T08:35:31.881Z,28.70
2019-04-20T08:36:33.625Z,28.49
2019-04-20T08:37:31.038Z,27.96
2019-04-20T08:39:01.287Z,25.86
2019-04-20T08:39:45.057Z,26.15
2019-04-20T08:40:36.085Z,25.63
2019-04-20T08:41:26.029Z,24.75
2019-04-20T08:42:40.418Z,25.45
2019-04-20T08:43:43.748Z,25.36
2019-04-20T08:45:35.007Z,25.96
2019-04-20T08:46:38.330Z,25.97
2019-04-20T08:47:37.828Z,26.47
2019-04-20T08:48:33.238Z,26.26
2019-04-20T08:49:37.862Z,26.08
2019-04-20T08:50:34.043Z,27.62
2019-04-20T08:51:38.634Z,26.90
2019-04-20T08:52:55.467Z,26.89
2019-04-20T08:53:46.565Z,26.89
2019-04-20T08:54:26.642Z,26.98
2019-04-20T08:55:29.494Z,26.86
2019-04-20T08:56:24.619Z,25.89
2019-04-20T08:57:11.736Z,27.22
2019-04-20T08:58:11.387Z,27.74
2019-04-20T08:59:11.642Z,28.67
2019-04-20T09:00:11.061Z,28.77
2019-04-20T09:01:14.461Z,28.97
2019-04-20T09:02:14.255Z,28.44
2019-04-20T09:03:17.999Z,27.93
2019-04-20T09:04:19.701Z,27.87
2019-04-20T09:05:26.172Z,28.88
2019-04-20T09:06:26.398Z,28.88
2019-04-20T09:07:19.642Z,28.36
2019-04-20T09:08:18.910Z,28.12
2019-04-20T09:09:37.905Z,28.34
2019-04-20T09:10:36.433Z,28.22
2019-04-20T09:11:31.100Z,28.11
2019-04-20T09:12:26.803Z,28.22
2019-04-20T09:13:21.404Z,28.39
2019-04-20T09:14:12.212Z,28.47
2019-04-20T09:15:10.604Z,28.34
2019-04-20T09:16:10.980Z,26.73
2019-04-20T09:17:14.086Z,26.73
2019-04-20T09:18:22.752Z,26.99
2019-04-20T09:19:14.837Z,27.69
2019-04-20T09:20:16.391Z,27.09
2019-04-20T09:21:24.318Z,27.94
2019-04-20T09:22:26.667Z,29.27
2019-04-20T09:23:26.762Z,29.57
2019-04-20T09:24:36.195Z,29.18
2019-04-20T09:25:53.359Z,30.41
2019-04-20T09:26:32.080Z,30.93
2019-04-20T09:27:24.202Z,31.21
2019-04-20T09:28:23.845Z,31.32
2019-04-20T09:29:28.386Z,31.32
2019-04-20T09:30:25.925Z,31.31
2019-04-20T09:31:25.859Z,30.91
2019-04-20T09:32:28.700Z,30.41
2019-04-20T09:33:28.911Z,30.71
2019-04-20T09:34:27.782Z,31.31
2019-04-20T09:35:30.156Z,31.40
2019-04-20T09:36:24.237Z,30.46
2019-04-20T09:37:29.660Z,30.05
2019-04-20T09:38:28.814Z,30.25
2019-04-20T09:39:22.489Z,30.78
2019-04-20T09:40:32.169Z,31.49
2019-04-20T09:41:35.307Z,32.11
2019-04-20T09:42:11.268Z,30.51
2019-04-20T09:43:10.988Z,31.02
2019-04-20T09:44:11.021Z,31.52
2019-04-20T09:45:21.362Z,31.23
2019-04-20T09:46:11.808Z,31.43
2019-04-20T09:47:11.006Z,31.32
2019-04-20T09:48:15.783Z,31.14
2019-04-20T09:49:20.095Z,31.87
2019-04-20T09:50:27.880Z,32.59
2019-04-20T09:51:34.268Z,31.99
2019-04-20T09:52:27.016Z,31.97
2019-04-20T09:53:24.723Z,32.67
2019-04-20T09:54:34.493Z,31.85
2019-04-20T09:55:26.829Z,31.62
2019-04-20T09:56:26.971Z,30.91
2019-04-20T09:57:29.480Z,31.01
2019-04-20T09:58:24.020Z,31.20
2019-04-20T09:59:28.993Z,31.18
2019-04-20T10:00:23.584Z,29.48
2019-04-20T10:01:22.784Z,29.80
2019-04-20T10:02:20.153Z,29.80
2019-04-20T10:03:11.038Z,30.41
2019-04-20T10:04:11.064Z,30.52
2019-04-20T10:05:11.293Z,30.43
2019-04-20T10:06:09.958Z,30.76
2019-04-20T10:07:14.514Z,31.44
2019-04-20T10:08:11.801Z,30.82
2019-04-20T10:09:09.969Z,31.41
2019-04-20T10:10:22.764Z,30.49
2019-04-20T10:11:11.778Z,30.29
2019-04-20T10:12:11.166Z,30.79
2019-04-20T10:13:11.128Z,30.68
2019-04-20T10:14:10.421Z,30.57
2019-04-20T10:15:15.948Z,30.33
2019-04-20T10:16:11.320Z,28.98
2019-04-20T10:17:09.841Z,30.02
2019-04-20T10:18:10.073Z,30.62
2019-04-20T10:19:11.730Z,30.71
2019-04-20T10:20:19.149Z,30.81
2019-04-20T10:21:11.795Z,30.60
2019-04-20T10:22:10.870Z,30.49
2019-04-20T10:23:09.773Z,30.99
2019-04-20T10:24:10.633Z,30.38
2019-04-20T10:25:10.817Z,29.67
2019-04-20T10:26:09.731Z,29.98
2019-04-20T10:27:10.504Z,29.68
2019-04-20T10:28:09.721Z,30.48
2019-04-20T10:29:09.992Z,30.57
2019-04-20T10:30:10.440Z,28.57
2019-04-20T10:31:10.687Z,28.98
2019-04-20T10:32:12.488Z,29.69
2019-04-20T10:33:10.663Z,29.60
2019-04-20T10:34:09.652Z,29.69
2019-04-20T10:35:13.185Z,28.09
2019-04-20T10:36:11.838Z,28.53
2019-04-20T10:37:09.621Z,28.94
2019-04-20T10:38:09.735Z,29.12
2019-04-20T10:39:10.848Z,28.31
2019-04-20T10:40:09.604Z,27.81
2019-04-20T10:41:16.622Z,28.11
2019-04-20T10:42:10.926Z,29.53
2019-04-20T10:43:10.219Z,29.41
2019-04-20T10:44:09.569Z,29.10
2019-04-20T10:45:10.789Z,29.30
2019-04-20T10:46:10.963Z,29.28
2019-04-20T10:47:09.514Z,28.58
2019-04-20T10:48:10.867Z,29.19
2019-04-20T10:49:09.812Z,28.68
2019-04-20T10:50:09.497Z,27.77
2019-04-20T10:51:10.595Z,27.98
2019-04-20T10:52:09.818Z,28.00
2019-04-20T10:53:09.958Z,28.08
2019-04-20T10:54:09.447Z,28.17
2019-04-20T10:55:10.463Z,28.25
2019-04-20T10:56:09.697Z,28.07
2019-04-20T10:57:09.819Z,28.68
2019-04-20T10:58:09.451Z,28.58
2019-04-20T10:59:09.769Z,28.07
2019-04-20T11:00:09.958Z,27.44
2019-04-20T11:01:09.613Z,27.53
2019-04-20T11:02:09.897Z,27.51
2019-04-20T11:03:10.027Z,28.10
2019-04-20T11:04:10.546Z,26.81
2019-04-20T11:05:10.695Z,28.39
2019-04-20T11:06:09.322Z,26.98
2019-04-20T11:07:10.450Z,25.98
2019-04-20T11:08:10.556Z,26.58
2019-04-20T11:09:09.298Z,26.39
2019-04-20T11:10:16.729Z,27.39
2019-04-20T11:11:16.443Z,27.28
2019-04-20T11:12:10.510Z,27.08
2019-04-20T11:13:09.650Z,25.07
2019-04-20T11:14:19.063Z,25.38
2019-04-20T11:15:10.460Z,25.54
2019-04-20T11:16:10.620Z,26.76
2019-04-20T11:17:09.191Z,27.56
2019-04-20T11:18:09.309Z,27.56
2019-04-20T11:19:09.473Z,27.36
2019-04-20T11:20:09.662Z,28.55
2019-04-20T11:21:09.273Z,27.34
2019-04-20T11:22:10.304Z,27.23
2019-04-20T11:23:10.642Z,27.55
2019-04-20T11:24:10.057Z,28.04
2019-04-20T11:25:10.307Z,27.94
2019-04-20T11:26:10.420Z,27.66
2019-04-20T11:27:09.985Z,27.95
2019-04-20T11:28:10.214Z,27.84
2019-04-20T11:29:10.441Z,27.44
2019-04-20T11:30:10.050Z,26.25
2019-04-20T11:31:10.234Z,26.07
2019-04-20T11:32:09.384Z,26.57
2019-04-20T11:33:09.935Z,27.47
2019-04-20T11:34:10.227Z,27.15
2019-04-20T11:35:19.953Z,26.76
2019-04-20T11:36:10.042Z,26.65
2019-04-20T11:37:09.004Z,26.35
2019-04-20T11:38:12.012Z,26.47
2019-04-20T11:39:09.175Z,26.17
2019-04-20T11:40:08.962Z,26.68
2019-04-20T11:41:16.297Z,26.48
2019-04-20T11:42:10.085Z,26.88
2019-04-20T11:43:08.917Z,26.88
2019-04-20T11:44:09.585Z,26.98
2019-04-20T11:45:08.911Z,26.98
2019-04-20T11:46:09.059Z,26.78
2019-04-20T11:47:08.878Z,26.67
2019-04-20T11:48:09.606Z,26.17
2019-04-20T11:49:09.806Z,25.87
2019-04-20T11:50:09.470Z,25.68
2019-04-20T11:51:09.525Z,25.90
2019-04-20T11:52:09.762Z,25.99
2019-04-20T11:53:09.130Z,25.70
2019-04-20T11:54:08.836Z,26.21
2019-04-20T11:55:08.825Z,26.91
2019-04-20T11:56:14.456Z,27.31
2019-04-20T11:57:11.236Z,27.29
2019-04-20T11:58:09.995Z,26.58
2019-04-20T11:59:09.441Z,26.71
2019-04-20T12:00:08.879Z,27.02
2019-04-20T12:01:14.220Z,26.93
2019-04-20T12:02:15.840Z,27.53
2019-04-20T12:03:21.186Z,26.92
2019-04-20T12:04:24.873Z,26.42
2019-04-20T12:05:21.300Z,26.12
2019-04-20T12:06:10.586Z,26.32
2019-04-20T12:07:08.920Z,27.21
2019-04-20T12:08:09.245Z,25.41
2019-04-20T12:09:08.647Z,24.91
2019-04-20T12:10:14.871Z,25.41
2019-04-20T12:11:22.742Z,26.01
2019-04-20T12:12:23.437Z,24.61
2019-04-20T12:13:10.177Z,25.51
2019-04-20T12:14:08.612Z,25.01
2019-04-20T12:15:08.744Z,25.01
2019-04-20T12:16:09.773Z,24.42
2019-04-20T12:17:08.554Z,25.12
2019-04-20T12:18:09.526Z,24.51
2019-04-20T12:19:08.706Z,24.32
2019-04-20T12:20:08.525Z,24.72
2019-04-20T12:21:08.620Z,24.82
2019-04-20T12:22:09.630Z,25.42
2019-04-20T12:23:08.638Z,26.82
2019-04-20T12:24:08.473Z,25.91
2019-04-20T12:25:08.463Z,26.01
2019-04-20T12:26:08.948Z,25.51
2019-04-20T12:27:08.838Z,25.81
2019-04-20T12:28:09.554Z,25.21
2019-04-20T12:29:09.819Z,25.51
2019-04-20T12:30:08.424Z,26.20
2019-04-20T12:31:11.872Z,26.09
2019-04-20T12:32:10.653Z,26.20
2019-04-20T12:33:09.477Z,25.20
2019-04-20T12:34:08.642Z,25.20
2019-04-20T12:35:08.612Z,25.49
2019-04-20T12:36:08.360Z,24.99
2019-04-20T12:37:09.088Z,25.10
2019-04-20T12:38:10.259Z,24.91
2019-04-20T12:39:08.889Z,25.11
2019-04-20T12:40:09.068Z,26.10
2019-04-20T12:41:11.014Z,25.11
2019-04-20T12:42:09.625Z,25.43
2019-04-20T12:43:08.979Z,25.84
2019-04-20T12:44:08.305Z,26.06
2019-04-20T12:45:08.315Z,25.84
2019-04-20T12:46:09.469Z,26.04
2019-04-20T12:47:08.221Z,26.14
2019-04-20T12:48:08.226Z,26.73
2019-04-20T12:49:09.421Z,25.92
2019-04-20T12:50:09.606Z,25.63
2019-04-20T12:51:08.187Z,25.73
2019-04-20T12:52:08.538Z,25.73
2019-04-20T12:53:08.620Z,25.63
2019-04-20T12:54:08.862Z,26.73
2019-04-20T12:55:08.450Z,25.93
2019-04-20T12:56:08.661Z,25.73
2019-04-20T12:57:08.932Z,26.14
2019-04-20T12:58:08.334Z,26.33
2019-04-20T12:59:09.513Z,26.22
2019-04-20T13:00:08.089Z,26.02
2019-04-20T13:01:08.072Z,26.22
2019-04-20T13:02:09.223Z,25.42
2019-04-20T13:03:09.468Z,25.12
2019-04-20T13:04:09.364Z,25.12
2019-04-20T13:05:09.294Z,25.12
2019-04-20T13:06:08.049Z,26.12
2019-04-20T13:07:08.030Z,25.92
2019-04-20T13:08:09.246Z,25.02
2019-04-20T13:09:08.282Z,25.12
2019-04-20T13:10:09.705Z,24.52
2019-04-20T13:11:08.758Z,24.32
2019-04-20T13:12:10.651Z,25.42
2019-04-20T13:13:08.199Z,24.33